Aihui, Heilongjiang

1:10 PM CST on August 30, 2016 (GMT +0800)
Ignatyevo | | Change Station

Elev 636 ft 50.43 °N, 127.41 °E | Updated 10 minutes ago

Light Rain Showers
Light Showers Rain
54 °F
Feels Like 54 °F
N
7
Wind Variable Wind from North

Today
High -- | Low -- °F
--% Chance of Precip.
Yesterday
High -- | Low -- °F
Precip. -- in
Pressure 29.89 in
Visibility 6.2 miles
Clouds Mostly Cloudy 3300 ft
Dew Point 54 °F
Humidity 100%
Rainfall 0.00 in
Snow Depth Not available.
4:41 AM 6:18 PM
Waning Crescent, 5% visible
METAR UHBB 300500Z 01003MPS 9999 -SHRA BKN033CB 12/12 Q1012 R36/090060 NOSIG RMK QFE742/0989
Pressure 29.89 in
Visibility 6.2 miles
Clouds Mostly Cloudy 3300 ft
Dew Point 54 °F
Humidity 100%
Rainfall 0.00 in
Snow Depth Not available.
4:41 AM 6:18 PM
Waning Crescent, 5% visible
METAR UHBB 300500Z 01003MPS 9999 -SHRA BKN033CB 12/12 Q1012 R36/090060 NOSIG RMK QFE742/0989

10-Day Weather Forecast

No radar image for this location.
×

Almanac

Astronomy

Aug. 30, 2016 Rise Set
Actual Time
Civil Twilight
Nautical Twilight
Astronomical Twilight
Moon
Length of Visible Light
Length of Day
Tomorrow will be .
, % of the Moon is Illuminated

Today's Extremes

Country Highs Country Lows

Community

WunderPhotos

Upload Photos

1,935,791 photos uploaded!

WunderBlog® & News

Nearby

Air Quality

  Air Quality AQ Index Pollutant
Not available.

Snow Depth

Station Depth Elevation

Earthquake Activity

City Distance Mag. Time & Date
Minimum magnitude displayed is 2.5.

Coastal Water Temperatures

Place Temperature

Stations

Nearby Weather Stations

Station Location Temp. Windchill Dew Point Humidity Wind Precip. Elev Updated Type